createdAt,value
2019-02-22T00:01:43.303Z,77.32
2019-02-22T00:04:10.186Z,76.71
2019-02-22T00:06:36.905Z,77.02
2019-02-22T00:09:04.849Z,77.15
2019-02-22T00:11:31.718Z,76.84
2019-02-22T00:13:58.518Z,77.21
2019-02-22T00:16:25.403Z,76.96
2019-02-22T00:18:52.205Z,77.14
2019-02-22T00:21:18.906Z,77.12
2019-02-22T00:23:45.728Z,76.74
2019-02-22T00:26:12.524Z,76.61
2019-02-22T00:28:39.394Z,76.75
2019-02-22T00:31:06.218Z,76.96
2019-02-22T00:33:35.033Z,77.07
2019-02-22T00:36:02.004Z,76.67
2019-02-22T00:38:28.766Z,76.40
2019-02-22T00:40:55.676Z,76.60
2019-02-22T00:43:22.497Z,76.75
2019-02-22T00:45:49.313Z,76.95
2019-02-22T00:48:16.101Z,77.45
2019-02-22T00:50:42.893Z,77.61
2019-02-22T00:53:09.769Z,77.64
2019-02-22T00:55:36.753Z,77.89
2019-02-22T00:58:03.634Z,77.93
2019-02-22T01:00:30.316Z,78.15
2019-02-22T01:02:57.106Z,78.21
2019-02-22T01:05:23.957Z,78.17
2019-02-22T01:07:50.659Z,78.27
2019-02-22T01:10:17.652Z,78.36
2019-02-22T01:12:44.414Z,78.47
2019-02-22T01:15:11.121Z,78.51
2019-02-22T01:17:37.818Z,78.57
2019-02-22T01:20:04.820Z,78.71
2019-02-22T01:22:31.606Z,78.62
2019-02-22T01:24:58.429Z,78.59
2019-02-22T01:27:25.285Z,78.62
2019-02-22T01:29:51.905Z,78.44
2019-02-22T01:32:18.578Z,78.47
2019-02-22T01:34:45.459Z,77.85
2019-02-22T01:37:12.398Z,77.93
2019-02-22T01:39:39.350Z,77.79
2019-02-22T01:42:06.029Z,77.86
2019-02-22T01:44:32.752Z,77.62
2019-02-22T01:46:59.532Z,77.45
2019-02-22T01:49:26.310Z,77.29
2019-02-22T01:51:53.130Z,76.96
2019-02-22T01:54:19.929Z,76.99
2019-02-22T01:56:46.814Z,76.74
2019-02-22T01:59:13.713Z,77.09
2019-02-22T02:01:40.423Z,77.27
2019-02-22T02:04:07.285Z,77.10
2019-02-22T02:06:34.040Z,77.15
2019-02-22T02:09:03.903Z,77.19
2019-02-22T02:11:30.640Z,77.03
2019-02-22T02:13:57.337Z,76.68
2019-02-22T02:16:24.042Z,76.69
2019-02-22T02:18:50.843Z,76.71
2019-02-22T02:21:17.689Z,76.68
2019-02-22T02:23:44.781Z,76.45
2019-02-22T02:26:11.623Z,76.16
2019-02-22T02:28:38.363Z,76.47
2019-02-22T02:31:05.089Z,76.46
2019-02-22T02:33:32.113Z,76.39
2019-02-22T02:35:59.006Z,76.30
2019-02-22T02:38:25.838Z,76.31
2019-02-22T02:40:52.780Z,75.99
2019-02-22T02:43:19.639Z,76.10
2019-02-22T02:45:48.414Z,75.97
2019-02-22T02:48:15.132Z,75.92
2019-02-22T02:50:41.887Z,75.95
2019-02-22T02:53:08.843Z,75.87
2019-02-22T02:55:35.738Z,75.88
2019-02-22T02:58:02.528Z,76.10
2019-02-22T03:00:29.274Z,76.15
2019-02-22T03:02:55.983Z,76.32
2019-02-22T03:05:33.619Z,77.44
2019-02-22T03:08:00.407Z,78.50
2019-02-22T03:10:27.140Z,78.71
2019-02-22T03:12:53.942Z,78.75
2019-02-22T03:15:20.740Z,78.88
2019-02-22T03:17:47.427Z,78.91
2019-02-22T03:20:14.110Z,78.91
2019-02-22T03:22:40.955Z,79.05
2019-02-22T03:25:07.992Z,79.08
2019-02-22T03:27:34.875Z,79.33
2019-02-22T03:30:01.769Z,79.93
2019-02-22T03:32:28.502Z,80.17
2019-02-22T03:34:55.118Z,80.39
2019-02-22T03:37:21.839Z,80.86
2019-02-22T03:39:48.585Z,81.04
2019-02-22T03:42:15.398Z,80.84
2019-02-22T03:44:42.238Z,80.91
2019-02-22T03:47:08.980Z,80.86
2019-02-22T03:49:35.831Z,80.78
2019-02-22T03:52:21.622Z,80.97
2019-02-22T03:54:49.452Z,81.04
2019-02-22T03:57:16.425Z,81.26
2019-02-22T03:59:43.280Z,81.27
2019-02-22T04:02:10.112Z,81.55
2019-02-22T04:04:36.965Z,81.68
2019-02-22T04:07:04.153Z,81.74
2019-02-22T04:09:31.109Z,81.70
2019-02-22T04:11:57.722Z,81.62
2019-02-22T04:14:24.448Z,81.69
2019-02-22T04:16:51.237Z,81.85
2019-02-22T04:19:18.121Z,81.87
2019-02-22T04:21:45.023Z,81.98
2019-02-22T04:24:11.663Z,82.07
2019-02-22T04:26:38.550Z,81.87
2019-02-22T04:29:05.164Z,81.95
2019-02-22T04:31:32.957Z,81.85
2019-02-22T04:33:59.812Z,82.02
2019-02-22T04:36:30.248Z,81.93
2019-02-22T04:38:57.064Z,81.99
2019-02-22T04:41:23.823Z,82.18
2019-02-22T04:43:50.639Z,82.40
2019-02-22T04:46:18.231Z,82.62
2019-02-22T04:48:46.281Z,82.91
2019-02-22T04:51:15.278Z,83.01
2019-02-22T04:53:42.153Z,83.00
2019-02-22T04:56:09.012Z,82.87
2019-02-22T04:58:35.917Z,82.81
2019-02-22T05:01:02.852Z,83.03
2019-02-22T05:03:29.644Z,83.16
2019-02-22T05:05:56.441Z,83.14
2019-02-22T05:08:23.273Z,82.95
2019-02-22T05:10:50.028Z,82.63
2019-02-22T05:13:16.769Z,82.64
2019-02-22T05:15:43.484Z,82.61
2019-02-22T05:18:10.306Z,82.44
2019-02-22T05:20:37.109Z,82.28
2019-02-22T05:23:06.622Z,82.15
2019-02-22T05:25:32.583Z,82.15
2019-02-22T05:27:59.543Z,82.17
2019-02-22T05:30:26.270Z,82.27
2019-02-22T05:32:52.964Z,82.08
2019-02-22T05:35:19.821Z,82.16
2019-02-22T05:37:46.612Z,82.19
2019-02-22T05:40:13.417Z,82.14
2019-02-22T05:42:40.431Z,81.92
2019-02-22T05:45:07.565Z,81.83
2019-02-22T05:47:34.390Z,81.82
2019-02-22T05:50:01.398Z,81.67
2019-02-22T05:52:27.997Z,81.58
2019-02-22T05:54:54.746Z,81.43
2019-02-22T05:57:21.739Z,81.56
2019-02-22T05:59:48.562Z,81.68
2019-02-22T06:02:15.277Z,81.47
2019-02-22T06:04:44.169Z,81.70
2019-02-22T06:07:10.883Z,81.83
2019-02-22T06:09:37.729Z,82.01
2019-02-22T06:12:04.759Z,82.08
2019-02-22T06:14:31.633Z,82.16
2019-02-22T06:16:58.390Z,82.24
2019-02-22T06:19:25.291Z,82.31
2019-02-22T06:21:51.991Z,82.17
2019-02-22T06:24:18.670Z,82.21
2019-02-22T06:26:45.436Z,82.05
2019-02-22T06:29:15.269Z,81.87
2019-02-22T06:31:42.110Z,81.80
2019-02-22T06:34:10.133Z,81.76
2019-02-22T06:36:36.952Z,81.77
2019-02-22T06:39:04.750Z,81.99
2019-02-22T06:41:31.623Z,82.03
2019-02-22T06:43:58.334Z,82.01
2019-02-22T06:46:27.848Z,81.81
2019-02-22T06:48:54.784Z,81.64
2019-02-22T06:51:21.734Z,81.76
2019-02-22T06:53:50.733Z,81.73
2019-02-22T06:56:17.691Z,81.53
2019-02-22T06:58:44.668Z,81.35
2019-02-22T07:01:11.349Z,81.23
2019-02-22T07:03:38.121Z,81.03
2019-02-22T07:06:05.778Z,80.80
2019-02-22T07:08:32.801Z,80.92
2019-02-22T07:11:19.191Z,80.71
2019-02-22T07:13:46.013Z,80.44
2019-02-22T07:16:12.979Z,80.35
2019-02-22T07:18:39.886Z,80.09
2019-02-22T07:21:07.997Z,79.85
2019-02-22T07:23:34.934Z,79.86
2019-02-22T07:26:02.051Z,79.68
2019-02-22T07:28:28.885Z,79.60
2019-02-22T07:30:55.498Z,79.39
2019-02-22T07:33:22.313Z,79.43
2019-02-22T07:35:49.239Z,79.41
2019-02-22T07:38:16.118Z,79.01
2019-02-22T07:40:43.158Z,78.87
2019-02-22T07:43:10.013Z,78.10
2019-02-22T07:45:36.871Z,77.70
2019-02-22T07:48:03.719Z,77.04
2019-02-22T07:50:30.350Z,76.93
2019-02-22T07:52:57.353Z,76.39
2019-02-22T07:55:24.132Z,76.38
2019-02-22T07:57:50.968Z,75.96
2019-02-22T08:00:17.770Z,75.42
2019-02-22T08:02:44.605Z,75.29
2019-02-22T08:05:11.549Z,75.58
2019-02-22T08:07:38.197Z,75.48
2019-02-22T08:10:05.258Z,75.28
2019-02-22T08:12:31.989Z,75.41
2019-02-22T08:14:58.713Z,75.70
2019-02-22T08:17:25.519Z,75.35
2019-02-22T08:19:52.325Z,74.24
2019-02-22T08:22:20.700Z,73.79
2019-02-22T08:24:47.821Z,73.42
2019-02-22T08:27:14.724Z,72.90
2019-02-22T08:29:41.555Z,71.38
2019-02-22T08:32:08.406Z,70.71
2019-02-22T08:34:35.276Z,70.42
2019-02-22T08:37:02.218Z,69.57
2019-02-22T08:39:28.972Z,68.82
2019-02-22T08:41:55.798Z,67.84
2019-02-22T08:44:22.554Z,67.65
2019-02-22T08:46:49.422Z,68.01
2019-02-22T08:49:16.301Z,68.44
2019-02-22T08:51:43.138Z,69.26
2019-02-22T08:54:10.403Z,68.89
2019-02-22T08:56:37.350Z,69.30
2019-02-22T08:59:04.357Z,69.41
2019-02-22T09:01:31.130Z,69.07
2019-02-22T09:03:57.972Z,68.55
2019-02-22T09:06:24.976Z,69.47
2019-02-22T09:09:11.549Z,70.02
2019-02-22T09:11:38.411Z,69.73
2019-02-22T09:14:05.021Z,69.22
2019-02-22T09:16:31.879Z,70.84
2019-02-22T09:18:58.614Z,70.45
2019-02-22T09:21:25.526Z,70.90
2019-02-22T09:23:52.407Z,70.69
2019-02-22T09:26:19.428Z,70.25
2019-02-22T09:28:46.186Z,70.12
2019-02-22T09:31:12.897Z,69.79
2019-02-22T09:33:39.994Z,69.36
2019-02-22T09:36:06.760Z,69.10
2019-02-22T09:38:33.721Z,68.23
2019-02-22T09:41:00.495Z,69.00
2019-02-22T09:43:27.307Z,68.85
2019-02-22T09:45:54.178Z,68.94
2019-02-22T09:48:21.034Z,68.23
2019-02-22T09:50:49.353Z,68.44
2019-02-22T09:53:16.092Z,67.71
2019-02-22T09:55:42.804Z,67.07
2019-02-22T09:58:09.529Z,67.04
2019-02-22T10:00:36.417Z,67.13
2019-02-22T10:03:03.245Z,67.69
2019-02-22T10:05:30.603Z,67.70
2019-02-22T10:07:57.456Z,66.90
2019-02-22T10:10:24.162Z,66.73
2019-02-22T10:12:50.907Z,66.05
2019-02-22T10:15:17.745Z,64.60
2019-02-22T10:17:44.572Z,63.80
2019-02-22T10:20:11.411Z,64.01
2019-02-22T10:22:38.252Z,62.75
2019-02-22T10:25:05.199Z,61.61
2019-02-22T10:27:32.181Z,61.50
2019-02-22T10:29:59.036Z,62.00
2019-02-22T10:32:25.726Z,61.63
2019-02-22T10:34:52.589Z,61.59
2019-02-22T10:37:19.415Z,61.63
2019-02-22T10:39:46.386Z,60.66
2019-02-22T10:42:13.173Z,60.21
2019-02-22T10:44:39.895Z,58.70
2019-02-22T10:47:06.707Z,58.99
2019-02-22T10:49:33.429Z,56.24
2019-02-22T10:52:00.528Z,55.39
2019-02-22T10:54:27.310Z,56.31
2019-02-22T10:56:54.186Z,54.64
2019-02-22T10:59:20.905Z,54.77
2019-02-22T11:01:48.109Z,54.77
2019-02-22T11:04:14.962Z,51.84
2019-02-22T11:06:41.876Z,49.77
2019-02-22T11:09:08.826Z,49.11
2019-02-22T11:11:35.671Z,49.11
2019-02-22T11:14:02.498Z,49.03
2019-02-22T11:16:29.332Z,49.47
2019-02-22T11:18:56.104Z,49.83
2019-02-22T11:21:23.732Z,49.49
2019-02-22T11:23:51.566Z,49.15
2019-02-22T11:26:18.323Z,49.02
2019-02-22T11:28:45.065Z,50.17
2019-02-22T11:31:11.916Z,50.09
2019-02-22T11:33:38.631Z,51.90
2019-02-22T11:36:05.743Z,53.02
2019-02-22T11:38:32.422Z,54.22
2019-02-22T11:40:59.133Z,55.47
2019-02-22T11:43:25.858Z,56.69
2019-02-22T11:45:52.607Z,58.35
2019-02-22T11:48:19.442Z,59.43
2019-02-22T11:50:46.330Z,58.51
2019-02-22T11:53:13.101Z,59.20
2019-02-22T11:55:41.092Z,57.96
2019-02-22T11:58:08.073Z,56.54
2019-02-22T12:00:34.940Z,55.34
2019-02-22T12:03:15.775Z,56.29
2019-02-22T12:05:36.436Z,54.00
2019-02-22T12:08:03.691Z,55.25
2019-02-22T12:10:30.383Z,54.83
2019-02-22T12:12:57.335Z,54.57
2019-02-22T12:15:24.205Z,54.88
2019-02-22T12:17:51.109Z,54.58
2019-02-22T12:20:17.936Z,55.52
2019-02-22T12:22:44.788Z,54.82
2019-02-22T12:25:11.806Z,55.21
2019-02-22T12:27:38.598Z,54.50
2019-02-22T12:30:07.919Z,54.54
2019-02-22T12:32:35.317Z,55.02
2019-02-22T12:35:02.816Z,55.70
2019-02-22T12:37:30.315Z,54.17
2019-02-22T12:40:01.393Z,55.65
2019-02-22T12:42:28.606Z,56.40
2019-02-22T12:45:02.883Z,55.97
2019-02-22T12:47:25.297Z,56.49
2019-02-22T12:49:52.482Z,55.79
2019-02-22T12:52:19.664Z,55.07
2019-02-22T12:54:46.862Z,53.85
2019-02-22T12:57:13.772Z,54.38
2019-02-22T12:59:41.063Z,53.69
2019-02-22T13:02:08.257Z,53.92
2019-02-22T13:04:36.663Z,53.81
2019-02-22T13:07:03.662Z,53.52
2019-02-22T13:09:36.248Z,55.02
2019-02-22T13:11:59.550Z,54.86
2019-02-22T13:14:26.627Z,54.38
2019-02-22T13:16:55.473Z,53.75
2019-02-22T13:19:24.943Z,52.83
2019-02-22T13:21:52.097Z,53.20
2019-02-22T13:24:19.360Z,52.67
2019-02-22T13:26:46.589Z,52.24
2019-02-22T13:29:19.029Z,52.01
2019-02-22T13:31:46.585Z,51.40
2019-02-22T13:34:14.055Z,51.31
2019-02-22T13:36:40.990Z,52.39
2019-02-22T13:39:08.126Z,53.12
2019-02-22T13:41:35.973Z,52.46
2019-02-22T13:44:03.345Z,52.32
2019-02-22T13:46:30.743Z,52.57
2019-02-22T13:48:57.930Z,51.00
2019-02-22T13:51:25.736Z,50.21
2019-02-22T13:53:52.928Z,50.64
2019-02-22T13:56:29.585Z,50.50
2019-02-22T13:58:54.272Z,52.13
2019-02-22T14:01:21.481Z,50.99
2019-02-22T14:03:49.037Z,51.06
2019-02-22T14:06:16.488Z,51.08
2019-02-22T14:08:43.817Z,52.30
2019-02-22T14:11:12.078Z,52.26
2019-02-22T14:13:39.510Z,52.73
2019-02-22T14:16:08.978Z,54.06
2019-02-22T14:18:36.347Z,54.06
2019-02-22T14:21:03.334Z,55.18
2019-02-22T14:23:30.043Z,55.34
2019-02-22T14:25:56.812Z,56.65
2019-02-22T14:28:23.575Z,56.69
2019-02-22T14:30:50.408Z,57.15
2019-02-22T14:33:17.261Z,57.81
2019-02-22T14:35:44.143Z,57.62
2019-02-22T14:38:11.203Z,57.28
2019-02-22T14:40:38.033Z,55.58
2019-02-22T14:43:15.787Z,55.44
2019-02-22T14:45:33.584Z,54.35
2019-02-22T14:48:00.277Z,52.95
2019-02-22T14:50:27.070Z,52.62
2019-02-22T14:52:53.788Z,52.27
2019-02-22T14:55:20.756Z,53.03
2019-02-22T14:57:47.548Z,53.40
2019-02-22T15:00:15.227Z,53.65
2019-02-22T15:02:41.933Z,53.61
2019-02-22T15:05:40.524Z,54.19
2019-02-22T15:08:07.923Z,54.46
2019-02-22T15:10:35.961Z,54.60
2019-02-22T15:13:02.827Z,55.36
2019-02-22T15:15:40.023Z,56.14
2019-02-22T15:18:07.229Z,55.62
2019-02-22T15:20:34.112Z,55.99
2019-02-22T15:23:02.621Z,56.63
2019-02-22T15:25:31.016Z,56.06
2019-02-22T15:27:57.767Z,57.80
2019-02-22T15:30:24.753Z,58.14
2019-02-22T15:32:51.666Z,57.89
2019-02-22T15:35:18.464Z,57.62
2019-02-22T15:37:45.204Z,57.28
2019-02-22T15:40:12.195Z,56.75
2019-02-22T15:42:40.603Z,57.05
2019-02-22T15:45:08.824Z,56.94
2019-02-22T15:47:35.624Z,57.48
2019-02-22T15:50:02.480Z,57.54
2019-02-22T15:52:31.544Z,58.25
2019-02-22T15:54:58.161Z,59.12
2019-02-22T15:57:25.270Z,59.42
2019-02-22T15:59:52.191Z,60.17
2019-02-22T16:02:20.256Z,60.06
2019-02-22T16:04:56.617Z,59.97
2019-02-22T16:07:24.506Z,60.48
2019-02-22T16:09:51.324Z,60.51
2019-02-22T16:12:18.168Z,61.52
2019-02-22T16:15:00.670Z,61.95
2019-02-22T16:17:37.143Z,61.92
2019-02-22T16:20:04.164Z,62.69
2019-02-22T16:22:31.016Z,62.81
2019-02-22T16:24:58.140Z,62.51
2019-02-22T16:27:25.218Z,63.24
2019-02-22T16:29:52.052Z,63.63
2019-02-22T16:32:20.756Z,63.83
2019-02-22T16:34:47.504Z,63.72
2019-02-22T16:37:14.386Z,63.88
2019-02-22T16:39:42.328Z,64.19
2019-02-22T16:42:10.413Z,64.12
2019-02-22T16:44:37.291Z,64.42
2019-02-22T16:47:04.061Z,64.74
2019-02-22T16:49:30.804Z,64.60
2019-02-22T16:51:57.649Z,64.99
2019-02-22T16:54:24.422Z,65.12
2019-02-22T16:56:51.646Z,66.17
2019-02-22T16:59:18.520Z,67.02
2019-02-22T17:01:45.532Z,68.57
2019-02-22T17:04:12.381Z,69.34
2019-02-22T17:06:39.118Z,69.59
2019-02-22T17:09:05.804Z,70.55
2019-02-22T17:11:32.643Z,70.45
2019-02-22T17:13:59.652Z,70.07
2019-02-22T17:16:28.722Z,71.14
2019-02-22T17:18:56.406Z,71.05
2019-02-22T17:21:23.287Z,71.33
2019-02-22T17:23:50.160Z,71.47
2019-02-22T17:26:17.011Z,71.17
2019-02-22T17:28:43.838Z,71.59
2019-02-22T17:31:10.675Z,71.87
2019-02-22T17:33:37.392Z,71.71
2019-02-22T17:36:04.229Z,71.63
2019-02-22T17:38:34.008Z,71.45
2019-02-22T17:41:00.815Z,71.87
2019-02-22T17:43:27.746Z,71.54
2019-02-22T17:45:54.440Z,71.82
2019-02-22T17:48:21.376Z,70.98
2019-02-22T17:50:48.228Z,71.02
2019-02-22T17:53:16.025Z,70.25
2019-02-22T17:55:42.902Z,69.69
2019-02-22T17:58:09.606Z,69.18
2019-02-22T18:00:36.502Z,69.14
2019-02-22T18:03:03.313Z,68.66
2019-02-22T18:05:30.150Z,68.59
2019-02-22T18:07:57.099Z,68.93
2019-02-22T18:10:23.930Z,68.44
2019-02-22T18:12:50.947Z,68.45
2019-02-22T18:15:17.841Z,68.62
2019-02-22T18:17:44.702Z,69.18
2019-02-22T18:20:11.423Z,68.79
2019-02-22T18:22:38.372Z,68.54
2019-02-22T18:25:05.741Z,68.37
2019-02-22T18:27:32.736Z,68.31
2019-02-22T18:29:59.523Z,68.35
2019-02-22T18:32:26.246Z,68.35
2019-02-22T18:34:53.077Z,68.29
2019-02-22T18:37:20.043Z,67.89
2019-02-22T18:39:47.914Z,68.32
2019-02-22T18:42:14.723Z,68.06
2019-02-22T18:44:42.029Z,67.92
2019-02-22T18:47:18.803Z,67.78
2019-02-22T18:49:37.565Z,66.28
2019-02-22T18:52:06.946Z,65.74
2019-02-22T18:54:33.927Z,65.67
2019-02-22T18:57:00.819Z,65.62
2019-02-22T18:59:27.699Z,65.22
2019-02-22T19:01:54.505Z,65.55
2019-02-22T19:04:21.354Z,65.93
2019-02-22T19:06:48.192Z,65.91
2019-02-22T19:09:15.280Z,65.43
2019-02-22T19:11:42.395Z,65.68
2019-02-22T19:14:09.318Z,65.87
2019-02-22T19:16:36.184Z,65.18
2019-02-22T19:19:03.007Z,65.01
2019-02-22T19:21:29.796Z,65.38
2019-02-22T19:23:56.709Z,65.29
2019-02-22T19:26:25.817Z,65.20
2019-02-22T19:28:52.621Z,65.26
2019-02-22T19:31:19.581Z,65.23
2019-02-22T19:33:46.442Z,63.84
2019-02-22T19:36:13.162Z,63.47
2019-02-22T19:38:40.022Z,63.46
2019-02-22T19:41:07.223Z,63.13
2019-02-22T19:43:34.238Z,63.19
2019-02-22T19:46:01.090Z,63.69
2019-02-22T19:48:27.972Z,64.21
2019-02-22T19:50:54.713Z,65.18
2019-02-22T19:53:21.644Z,65.49
2019-02-22T19:55:48.477Z,66.42
2019-02-22T19:58:15.177Z,66.84
2019-02-22T20:00:42.241Z,67.38
2019-02-22T20:03:09.087Z,68.11
2019-02-22T20:05:35.991Z,68.04
2019-02-22T20:08:02.816Z,68.32
2019-02-22T20:10:30.400Z,68.26
2019-02-22T20:12:57.092Z,68.80
2019-02-22T20:15:24.099Z,69.09
2019-02-22T20:17:54.661Z,68.92
2019-02-22T20:20:19.788Z,68.67
2019-02-22T20:22:46.726Z,69.21
2019-02-22T20:25:13.660Z,69.06
2019-02-22T20:27:42.605Z,68.99
2019-02-22T20:30:11.426Z,68.87
2019-02-22T20:32:38.540Z,69.08
2019-02-22T20:35:07.465Z,69.32
2019-02-22T20:37:34.567Z,69.22
2019-02-22T20:40:03.875Z,69.74
2019-02-22T20:42:34.862Z,70.29
2019-02-22T20:45:01.861Z,70.84
2019-02-22T20:47:41.750Z,71.46
2019-02-22T20:50:14.643Z,71.48
2019-02-22T20:52:45.577Z,71.59
2019-02-22T20:55:14.541Z,71.51
2019-02-22T20:57:42.298Z,70.83
2019-02-22T21:00:11.139Z,70.92
2019-02-22T21:02:39.091Z,71.04
2019-02-22T21:05:07.068Z,71.79
2019-02-22T21:07:34.917Z,72.04
2019-02-22T21:10:02.124Z,72.30
2019-02-22T21:12:28.983Z,72.75
2019-02-22T21:14:55.781Z,72.65
2019-02-22T21:17:23.591Z,72.23
2019-02-22T21:19:50.523Z,71.83
2019-02-22T21:22:17.442Z,72.18
2019-02-22T21:24:46.370Z,71.61
2019-02-22T21:27:23.094Z,71.82
2019-02-22T21:29:50.851Z,72.38
2019-02-22T21:32:17.720Z,72.19
2019-02-22T21:34:45.574Z,72.14
2019-02-22T21:37:12.448Z,71.97
2019-02-22T21:39:39.153Z,71.71
2019-02-22T21:42:05.909Z,71.70
2019-02-22T21:44:32.608Z,70.85
2019-02-22T21:46:59.378Z,70.86
2019-02-22T21:49:26.231Z,70.69
2019-02-22T21:51:52.951Z,71.34
2019-02-22T21:54:19.994Z,72.23
2019-02-22T21:56:47.031Z,71.41
2019-02-22T21:59:14.767Z,71.88
2019-02-22T22:01:45.073Z,71.55
2019-02-22T22:04:12.867Z,71.71
2019-02-22T22:06:39.869Z,71.75
2019-02-22T22:09:06.747Z,71.88
2019-02-22T22:11:36.219Z,72.51
2019-02-22T22:14:09.088Z,72.68
2019-02-22T22:16:41.884Z,71.92
2019-02-22T22:19:08.634Z,71.82
2019-02-22T22:21:35.595Z,71.93
2019-02-22T22:24:08.148Z,71.89
2019-02-22T22:26:44.514Z,71.71
2019-02-22T22:29:18.825Z,71.47
2019-02-22T22:31:50.485Z,72.13
2019-02-22T22:34:17.450Z,72.12
2019-02-22T22:36:44.314Z,71.62
2019-02-22T22:39:16.001Z,72.39
2019-02-22T22:41:42.794Z,71.48
2019-02-22T22:44:10.661Z,72.58
2019-02-22T22:46:37.494Z,72.06
2019-02-22T22:49:05.648Z,72.62
2019-02-22T22:51:32.555Z,72.39
2019-02-22T22:53:59.463Z,72.91
2019-02-22T22:56:26.178Z,72.34
2019-02-22T22:58:52.995Z,72.37
2019-02-22T23:01:24.257Z,72.49
2019-02-22T23:03:51.234Z,73.71
2019-02-22T23:06:17.995Z,74.03
2019-02-22T23:08:44.683Z,75.13
2019-02-22T23:11:11.501Z,74.78
2019-02-22T23:13:38.317Z,75.65
2019-02-22T23:16:05.868Z,74.13
2019-02-22T23:18:33.080Z,73.60
2019-02-22T23:20:59.795Z,74.01
2019-02-22T23:23:26.573Z,73.59
2019-02-22T23:25:53.366Z,73.95
2019-02-22T23:28:20.217Z,72.43
2019-02-22T23:30:47.114Z,72.54
2019-02-22T23:33:13.821Z,73.00
2019-02-22T23:35:40.518Z,71.92
2019-02-22T23:38:07.286Z,71.91
2019-02-22T23:40:34.080Z,72.62
2019-02-22T23:43:00.668Z,73.48
2019-02-22T23:45:27.652Z,72.29
2019-02-22T23:47:54.326Z,72.29
2019-02-22T23:50:21.146Z,72.21
2019-02-22T23:52:47.837Z,72.99
2019-02-22T23:55:14.576Z,73.65
2019-02-22T23:57:41.275Z,73.92
